createdAt,value
2019-01-24T00:00:19.509Z,43.80
2019-01-24T00:02:47.954Z,49.57
2019-01-24T00:05:16.438Z,46.17
2019-01-24T00:07:45.077Z,49.27
2019-01-24T00:10:13.639Z,49.43
2019-01-24T00:12:42.082Z,47.97
2019-01-24T00:15:10.774Z,44.97
2019-01-24T00:17:39.231Z,50.10
2019-01-24T00:20:13.101Z,45.40
2019-01-24T00:22:41.832Z,49.50
2019-01-24T00:25:14.789Z,50.30
2019-01-24T00:27:43.687Z,53.20
2019-01-24T00:30:16.378Z,49.53
2019-01-24T00:32:44.829Z,49.03
2019-01-24T00:35:13.691Z,50.10
2019-01-24T00:37:47.863Z,54.23
2019-01-24T00:40:20.830Z,51.13
2019-01-24T00:42:49.489Z,56.80
2019-01-24T00:45:18.107Z,50.97
2019-01-24T00:47:46.674Z,51.77
2019-01-24T00:50:16.487Z,51.47
2019-01-24T00:52:44.963Z,49.20
2019-01-24T00:55:14.951Z,48.27
2019-01-24T00:57:43.596Z,49.80
2019-01-24T01:00:25.649Z,54.40
2019-01-24T01:02:54.106Z,56.27
2019-01-24T01:05:22.552Z,52.67
2019-01-24T01:07:51.565Z,50.63
2019-01-24T01:10:20.158Z,50.50
2019-01-24T01:12:48.646Z,53.23
2019-01-24T01:15:18.921Z,48.73
2019-01-24T01:17:47.627Z,50.30
2019-01-24T01:20:18.927Z,48.60
2019-01-24T01:22:47.406Z,48.83
2019-01-24T01:25:16.138Z,51.07
2019-01-24T01:27:45.428Z,48.00
2019-01-24T01:30:17.001Z,47.93
2019-01-24T01:32:45.502Z,46.83
2019-01-24T01:35:14.054Z,46.57
2019-01-24T01:37:42.509Z,43.90
2019-01-24T01:40:13.704Z,45.67
2019-01-24T01:42:42.340Z,43.87
2019-01-24T01:45:13.767Z,41.53
2019-01-24T01:47:42.293Z,44.60
2019-01-24T01:50:13.907Z,48.70
2019-01-24T01:52:42.318Z,44.80
2019-01-24T01:55:10.962Z,45.77
2019-01-24T01:57:39.307Z,43.03
2019-01-24T02:00:10.876Z,41.50
2019-01-24T02:02:39.295Z,48.43
2019-01-24T02:05:09.877Z,39.77
2019-01-24T02:07:38.393Z,43.33
2019-01-24T02:10:09.901Z,40.50
2019-01-24T02:12:38.403Z,41.97
2019-01-24T02:15:09.329Z,41.53
2019-01-24T02:17:37.770Z,41.17
2019-01-24T02:20:17.689Z,39.43
2019-01-24T02:22:46.262Z,41.83
2019-01-24T02:25:15.044Z,45.00
2019-01-24T02:27:43.469Z,42.67
2019-01-24T02:30:20.536Z,43.17
2019-01-24T02:32:48.915Z,42.37
2019-01-24T02:35:17.379Z,41.40
2019-01-24T02:37:45.873Z,41.37
2019-01-24T02:40:14.785Z,44.40
2019-01-24T02:42:43.245Z,44.40
2019-01-24T02:45:17.402Z,44.83
2019-01-24T02:47:46.048Z,42.27
2019-01-24T02:50:19.799Z,42.30
2019-01-24T02:52:48.482Z,45.30
2019-01-24T02:55:17.311Z,41.10
2019-01-24T02:57:45.811Z,45.90
2019-01-24T03:00:22.703Z,43.77
2019-01-24T03:02:51.669Z,44.10
2019-01-24T03:05:21.874Z,52.13
2019-01-24T03:07:50.747Z,44.17
2019-01-24T03:10:19.466Z,46.30
2019-01-24T03:12:48.197Z,47.00
2019-01-24T03:15:18.480Z,41.10
2019-01-24T03:17:47.119Z,40.40
2019-01-24T03:20:17.019Z,45.03
2019-01-24T03:22:45.950Z,44.73
2019-01-24T03:25:16.152Z,46.17
2019-01-24T03:27:44.686Z,47.57
2019-01-24T03:30:15.565Z,48.30
2019-01-24T03:32:44.022Z,45.77
2019-01-24T03:35:15.289Z,42.93
2019-01-24T03:37:43.758Z,48.17
2019-01-24T03:40:13.762Z,45.67
2019-01-24T03:42:42.215Z,43.10
2019-01-24T03:45:13.246Z,49.13
2019-01-24T03:47:41.708Z,45.37
2019-01-24T03:50:13.024Z,51.87
2019-01-24T03:52:41.411Z,51.23
2019-01-24T03:55:11.012Z,49.23
2019-01-24T03:57:39.513Z,44.43
2019-01-24T04:00:13.658Z,45.97
2019-01-24T04:02:42.352Z,44.70
2019-01-24T04:05:12.006Z,44.77
2019-01-24T04:07:40.719Z,44.57
2019-01-24T04:10:12.265Z,47.07
2019-01-24T04:12:40.688Z,45.93
2019-01-24T04:15:12.415Z,44.33
2019-01-24T04:17:40.876Z,47.23
2019-01-24T04:20:10.395Z,46.07
2019-01-24T04:22:38.823Z,42.47
2019-01-24T04:25:08.455Z,45.43
2019-01-24T04:27:36.955Z,43.63
2019-01-24T04:30:08.532Z,48.77
2019-01-24T04:32:36.969Z,44.90
2019-01-24T04:35:07.898Z,45.43
2019-01-24T04:37:36.330Z,50.80
2019-01-24T04:40:07.318Z,47.67
2019-01-24T04:42:35.755Z,43.87
2019-01-24T04:45:05.984Z,41.13
2019-01-24T04:47:34.336Z,47.87
2019-01-24T04:50:03.173Z,43.67
2019-01-24T04:52:31.636Z,46.93
2019-01-24T04:55:00.376Z,45.50
2019-01-24T04:57:28.922Z,45.33
2019-01-24T04:59:57.286Z,46.30
2019-01-24T05:02:25.730Z,43.33
2019-01-24T05:04:54.187Z,47.43
2019-01-24T05:07:22.616Z,46.53
2019-01-24T05:09:51.009Z,44.13
2019-01-24T05:12:19.356Z,48.73
2019-01-24T05:14:47.748Z,42.87
2019-01-24T05:17:16.182Z,45.23
2019-01-24T05:19:44.576Z,42.70
2019-01-24T05:22:12.940Z,43.97
2019-01-24T05:24:41.430Z,41.03
2019-01-24T05:27:09.858Z,40.83
2019-01-24T05:29:38.357Z,44.63
2019-01-24T05:32:06.745Z,46.73
2019-01-24T05:34:35.103Z,43.37
2019-01-24T05:37:03.598Z,43.90
2019-01-24T05:39:32.026Z,42.17
2019-01-24T05:42:00.488Z,40.67
2019-01-24T05:44:28.848Z,35.53
2019-01-24T05:46:57.415Z,38.67
2019-01-24T05:49:25.848Z,37.67
2019-01-24T05:51:54.231Z,40.77
2019-01-24T05:54:22.584Z,44.50
2019-01-24T05:56:51.044Z,42.13
2019-01-24T05:59:19.410Z,40.93
2019-01-24T06:01:48.343Z,43.03
2019-01-24T06:04:16.848Z,38.73
2019-01-24T06:06:45.396Z,38.63
2019-01-24T06:09:13.764Z,39.03
2019-01-24T06:11:42.157Z,36.43
2019-01-24T06:14:10.516Z,39.57
2019-01-24T06:16:38.981Z,39.17
2019-01-24T06:19:07.410Z,38.13
2019-01-24T06:21:35.954Z,39.70
2019-01-24T06:24:04.491Z,38.43
2019-01-24T06:26:32.946Z,39.63
2019-01-24T06:29:03.018Z,37.33
2019-01-24T06:31:31.648Z,37.40
2019-01-24T06:34:00.011Z,36.63
2019-01-24T06:36:28.398Z,34.50
2019-01-24T06:38:56.755Z,37.53
2019-01-24T06:41:25.197Z,35.40
2019-01-24T06:43:53.595Z,38.07
2019-01-24T06:46:22.090Z,36.93
2019-01-24T06:48:50.492Z,32.83
2019-01-24T06:51:18.852Z,34.20
2019-01-24T06:53:47.231Z,37.40
2019-01-24T06:56:15.678Z,40.30
2019-01-24T06:58:44.072Z,37.20
2019-01-24T07:01:12.433Z,34.60
2019-01-24T07:03:40.892Z,38.97
2019-01-24T07:06:09.322Z,42.97
2019-01-24T07:08:37.806Z,36.07
2019-01-24T07:11:06.232Z,39.93
2019-01-24T07:13:34.714Z,40.47
2019-01-24T07:16:03.150Z,41.60
2019-01-24T07:18:31.618Z,42.40
2019-01-24T07:20:59.978Z,39.00
2019-01-24T07:23:28.441Z,39.00
2019-01-24T07:25:56.869Z,36.73
2019-01-24T07:28:25.411Z,40.67
2019-01-24T07:30:53.853Z,34.93
2019-01-24T07:33:22.399Z,40.33
2019-01-24T07:35:50.829Z,41.40
2019-01-24T07:38:19.302Z,42.87
2019-01-24T07:40:47.718Z,39.40
2019-01-24T07:43:16.106Z,38.97
2019-01-24T07:45:44.544Z,40.43
2019-01-24T07:48:13.078Z,38.10
2019-01-24T07:50:41.517Z,37.90
2019-01-24T07:53:10.062Z,38.03
2019-01-24T07:55:38.420Z,42.33
2019-01-24T07:58:07.169Z,42.07
2019-01-24T08:00:35.668Z,38.30
2019-01-24T08:03:04.268Z,37.87
2019-01-24T08:05:32.729Z,37.43
2019-01-24T08:08:01.236Z,33.77
2019-01-24T08:10:29.777Z,33.37
2019-01-24T08:12:58.197Z,36.33
2019-01-24T08:15:26.674Z,38.47
2019-01-24T08:17:55.098Z,37.70
2019-01-24T08:20:25.431Z,33.00
2019-01-24T08:22:53.928Z,38.00
2019-01-24T08:25:22.520Z,32.33
2019-01-24T08:27:51.018Z,36.63
2019-01-24T08:30:25.284Z,31.57
2019-01-24T08:32:53.852Z,35.90
2019-01-24T08:35:22.314Z,37.53
2019-01-24T08:37:50.813Z,35.07
2019-01-24T08:40:24.148Z,37.80
2019-01-24T08:42:52.977Z,39.73
2019-01-24T08:45:21.571Z,37.70
2019-01-24T08:47:49.990Z,37.40
2019-01-24T08:50:20.424Z,32.97
2019-01-24T08:52:49.119Z,38.73
2019-01-24T08:55:23.082Z,40.43
2019-01-24T08:57:51.581Z,39.20
2019-01-24T09:00:21.799Z,37.67
2019-01-24T09:02:51.188Z,34.93
2019-01-24T09:05:19.932Z,37.17
2019-01-24T09:07:50.301Z,38.23
2019-01-24T09:10:27.376Z,34.50
2019-01-24T09:12:55.978Z,38.73
2019-01-24T09:15:24.980Z,36.37
2019-01-24T09:17:53.723Z,30.20
2019-01-24T09:20:22.336Z,34.33
2019-01-24T09:22:55.143Z,36.63
2019-01-24T09:25:20.957Z,34.37
2019-01-24T09:27:49.446Z,33.23
2019-01-24T09:30:26.095Z,32.77
2019-01-24T09:32:54.547Z,33.93
2019-01-24T09:35:23.183Z,32.57
2019-01-24T09:37:51.676Z,38.07
2019-01-24T09:40:21.603Z,36.47
2019-01-24T09:42:50.203Z,39.30
2019-01-24T09:45:27.325Z,34.07
2019-01-24T09:47:57.422Z,36.43
2019-01-24T09:50:28.434Z,39.77
2019-01-24T09:52:57.485Z,39.57
2019-01-24T09:55:28.436Z,37.20
2019-01-24T09:57:57.347Z,37.17
2019-01-24T10:00:36.142Z,39.60
2019-01-24T10:03:05.385Z,36.67
2019-01-24T10:05:34.179Z,37.80
2019-01-24T10:08:04.512Z,31.50
2019-01-24T10:10:33.620Z,36.50
2019-01-24T10:13:02.812Z,35.43
2019-01-24T10:15:32.248Z,32.57
2019-01-24T10:18:01.211Z,37.27
2019-01-24T10:20:30.036Z,37.57
2019-01-24T10:22:59.575Z,31.83
2019-01-24T10:25:34.499Z,36.57
2019-01-24T10:28:03.593Z,34.17
2019-01-24T10:30:32.621Z,33.83
2019-01-24T10:33:01.660Z,32.90
2019-01-24T10:35:30.608Z,36.33
2019-01-24T10:37:59.639Z,33.67
2019-01-24T10:40:33.588Z,38.50
2019-01-24T10:43:02.609Z,36.30
2019-01-24T10:45:32.927Z,38.10
2019-01-24T10:48:03.201Z,40.90
2019-01-24T10:50:31.831Z,34.50
2019-01-24T10:53:01.040Z,34.67
2019-01-24T10:55:30.023Z,38.60
2019-01-24T10:58:00.433Z,37.87
2019-01-24T11:00:32.855Z,39.03
2019-01-24T11:03:02.840Z,36.70
2019-01-24T11:05:31.542Z,39.83
2019-01-24T11:08:00.161Z,39.27
2019-01-24T11:10:32.154Z,35.83
2019-01-24T11:13:03.301Z,37.37
2019-01-24T11:15:31.807Z,40.33
2019-01-24T11:18:00.406Z,38.03
2019-01-24T11:20:30.063Z,42.47
2019-01-24T11:22:58.855Z,37.83
2019-01-24T11:25:27.966Z,35.57
2019-01-24T11:27:56.600Z,40.10
2019-01-24T11:30:31.809Z,38.57
2019-01-24T11:33:03.389Z,39.50
2019-01-24T11:35:34.545Z,41.23
2019-01-24T11:38:03.234Z,39.40
2019-01-24T11:40:31.657Z,39.23
2019-01-24T11:43:05.257Z,45.13
2019-01-24T11:45:40.024Z,38.77
2019-01-24T11:48:09.107Z,40.43
2019-01-24T11:50:39.450Z,39.47
2019-01-24T11:53:08.496Z,38.03
2019-01-24T11:55:37.252Z,36.33
2019-01-24T11:58:06.247Z,35.80
2019-01-24T12:00:38.599Z,42.60
2019-01-24T12:03:08.800Z,43.23
2019-01-24T12:05:38.323Z,37.30
2019-01-24T12:08:07.880Z,39.03
2019-01-24T12:10:37.272Z,44.77
2019-01-24T12:13:06.097Z,40.33
2019-01-24T12:15:34.762Z,41.40
2019-01-24T12:18:05.255Z,40.67
2019-01-24T12:20:34.244Z,45.77
2019-01-24T12:23:06.582Z,37.03
2019-01-24T12:25:35.533Z,38.60
2019-01-24T12:28:06.228Z,40.07
2019-01-24T12:30:36.639Z,37.97
2019-01-24T12:33:06.079Z,42.47
2019-01-24T12:35:36.530Z,39.30
2019-01-24T12:38:12.022Z,41.47
2019-01-24T12:40:40.722Z,42.13
2019-01-24T12:43:09.652Z,40.47
2019-01-24T12:45:41.645Z,40.83
2019-01-24T12:48:12.311Z,40.07
2019-01-24T12:50:41.319Z,44.90
2019-01-24T12:53:11.553Z,40.33
2019-01-24T12:55:41.344Z,42.90
2019-01-24T12:58:11.726Z,44.47
2019-01-24T13:00:42.469Z,41.07
2019-01-24T13:03:13.984Z,45.77
2019-01-24T13:05:43.515Z,44.37
2019-01-24T13:08:13.360Z,47.83
2019-01-24T13:10:42.167Z,49.37
2019-01-24T13:13:10.519Z,44.60
2019-01-24T13:15:39.054Z,48.43
2019-01-24T13:18:07.931Z,47.97
2019-01-24T13:20:36.385Z,50.90
2019-01-24T13:23:05.012Z,56.83
2019-01-24T13:25:34.493Z,52.83
2019-01-24T13:28:03.072Z,55.00
2019-01-24T13:30:38.067Z,56.67
2019-01-24T13:33:07.651Z,64.27
2019-01-24T13:35:36.636Z,65.50
2019-01-24T13:38:06.131Z,70.10
2019-01-24T13:40:34.637Z,75.27
2019-01-24T13:43:06.318Z,69.60
2019-01-24T13:45:39.183Z,67.40
2019-01-24T13:48:07.956Z,72.33
2019-01-24T13:50:37.048Z,72.97
2019-01-24T13:53:06.352Z,76.10
2019-01-24T13:55:35.384Z,69.80
2019-01-24T13:58:05.639Z,61.90
2019-01-24T14:00:36.236Z,67.90
2019-01-24T14:03:11.746Z,65.00
2019-01-24T14:05:40.146Z,70.47
2019-01-24T14:08:09.148Z,74.03
2019-01-24T14:10:38.614Z,67.83
2019-01-24T14:13:09.606Z,63.40
2019-01-24T14:15:38.090Z,70.83
2019-01-24T14:18:07.383Z,66.30
2019-01-24T14:20:37.338Z,67.83
2019-01-24T14:23:07.410Z,61.47
2019-01-24T14:25:35.829Z,64.77
2019-01-24T14:28:05.508Z,67.37
2019-01-24T14:30:34.537Z,58.87
2019-01-24T14:33:05.156Z,62.83
2019-01-24T14:35:34.358Z,60.40
2019-01-24T14:38:03.059Z,59.63
2019-01-24T14:40:32.011Z,66.50
2019-01-24T14:43:02.183Z,61.20
2019-01-24T14:45:30.714Z,60.30
2019-01-24T14:47:59.774Z,64.13
2019-01-24T14:50:30.348Z,55.13
2019-01-24T14:52:59.167Z,58.00
2019-01-24T14:55:27.599Z,65.67
2019-01-24T14:57:56.132Z,56.93
2019-01-24T15:00:37.453Z,60.57
2019-01-24T15:03:06.121Z,63.17
2019-01-24T15:05:39.260Z,65.47
2019-01-24T15:08:07.940Z,60.57
2019-01-24T15:10:36.541Z,68.97
2019-01-24T15:13:05.873Z,73.63
2019-01-24T15:15:34.305Z,73.23
2019-01-24T15:18:03.332Z,74.53
2019-01-24T15:20:32.248Z,81.03
2019-01-24T15:23:00.737Z,75.87
2019-01-24T15:25:32.825Z,77.07
2019-01-24T15:28:01.354Z,74.77
2019-01-24T15:30:30.973Z,76.60
2019-01-24T15:33:00.590Z,77.63
2019-01-24T15:35:31.297Z,82.83
2019-01-24T15:38:00.201Z,78.10
2019-01-24T15:40:34.481Z,71.40
2019-01-24T15:43:03.081Z,84.13
2019-01-24T15:45:31.751Z,82.00
2019-01-24T15:48:00.499Z,75.47
2019-01-24T15:50:28.991Z,74.80
2019-01-24T15:52:57.519Z,71.17
2019-01-24T15:55:25.878Z,76.50
2019-01-24T15:57:55.556Z,80.17
2019-01-24T16:00:32.942Z,77.67
2019-01-24T16:03:02.014Z,75.57
2019-01-24T16:05:30.577Z,74.37
2019-01-24T16:08:01.934Z,72.33
2019-01-24T16:10:30.663Z,73.07
2019-01-24T16:12:59.291Z,77.83
2019-01-24T16:15:30.931Z,70.93
2019-01-24T16:17:59.449Z,73.23
2019-01-24T16:20:29.917Z,71.40
2019-01-24T16:22:59.531Z,76.70
2019-01-24T16:25:31.285Z,74.03
2019-01-24T16:27:59.930Z,72.67
2019-01-24T16:30:33.504Z,76.87
2019-01-24T16:33:07.263Z,72.73
2019-01-24T16:35:36.279Z,74.47
2019-01-24T16:38:09.608Z,75.50
2019-01-24T16:40:35.585Z,68.90
2019-01-24T16:43:04.613Z,75.40
2019-01-24T16:45:33.288Z,71.77
2019-01-24T16:48:02.055Z,80.00
2019-01-24T16:50:30.455Z,76.30
2019-01-24T16:53:01.113Z,70.63
2019-01-24T16:55:29.952Z,67.30
2019-01-24T16:57:58.709Z,68.13
2019-01-24T17:00:31.215Z,73.10
2019-01-24T17:02:59.795Z,73.00
2019-01-24T17:05:29.196Z,75.63
2019-01-24T17:07:58.233Z,77.63
2019-01-24T17:10:32.212Z,73.67
2019-01-24T17:13:01.242Z,74.50
2019-01-24T17:15:30.731Z,76.03
2019-01-24T17:17:59.307Z,73.60
2019-01-24T17:20:34.024Z,69.23
2019-01-24T17:23:05.214Z,70.87
2019-01-24T17:25:33.983Z,71.13
2019-01-24T17:28:04.927Z,71.63
2019-01-24T17:30:36.269Z,71.47
2019-01-24T17:33:08.234Z,76.93
2019-01-24T17:35:42.205Z,67.70
2019-01-24T17:38:10.951Z,72.20
2019-01-24T17:40:40.190Z,64.50
2019-01-24T17:43:11.871Z,69.83
2019-01-24T17:45:41.872Z,72.80
2019-01-24T17:48:10.510Z,63.67
2019-01-24T17:50:41.760Z,71.47
2019-01-24T17:53:10.685Z,71.97
2019-01-24T17:55:45.015Z,69.77
2019-01-24T17:58:14.126Z,64.47
2019-01-24T18:00:48.802Z,68.27
2019-01-24T18:03:17.609Z,60.57
2019-01-24T18:05:48.547Z,66.80
2019-01-24T18:08:17.292Z,66.73
2019-01-24T18:10:46.591Z,66.10
2019-01-24T18:13:15.134Z,70.73
2019-01-24T18:15:45.336Z,64.73
2019-01-24T18:18:15.193Z,69.37
2019-01-24T18:20:43.771Z,63.87
2019-01-24T18:23:13.233Z,63.93
2019-01-24T18:25:43.502Z,70.63
2019-01-24T18:28:12.494Z,69.23
2019-01-24T18:30:42.604Z,63.27
2019-01-24T18:33:11.490Z,66.57
2019-01-24T18:35:40.408Z,68.57
2019-01-24T18:38:09.487Z,69.50
2019-01-24T18:40:39.793Z,60.40
2019-01-24T18:43:11.951Z,67.07
2019-01-24T18:45:54.163Z,70.67
2019-01-24T18:48:26.484Z,68.53
2019-01-24T18:50:57.108Z,68.97
2019-01-24T18:53:25.948Z,67.63
2019-01-24T18:55:54.883Z,72.37
2019-01-24T18:58:23.986Z,71.83
2019-01-24T19:00:52.531Z,67.33
2019-01-24T19:03:21.033Z,65.70
2019-01-24T19:05:49.543Z,68.83
2019-01-24T19:08:18.256Z,72.80
2019-01-24T19:10:46.758Z,68.57
2019-01-24T19:13:15.223Z,71.10
2019-01-24T19:15:43.653Z,69.40
2019-01-24T19:18:12.658Z,70.47
2019-01-24T19:20:41.414Z,66.50
2019-01-24T19:23:10.141Z,69.93
2019-01-24T19:25:38.839Z,71.27
2019-01-24T19:28:07.559Z,68.77
2019-01-24T19:30:36.044Z,69.77
2019-01-24T19:33:04.980Z,73.23
2019-01-24T19:35:33.474Z,71.37
2019-01-24T19:38:02.344Z,63.47
2019-01-24T19:40:32.888Z,70.53
2019-01-24T19:43:01.586Z,62.13
2019-01-24T19:45:30.622Z,70.03
2019-01-24T19:47:59.214Z,68.93
2019-01-24T19:50:30.123Z,65.90
2019-01-24T19:52:59.055Z,67.53
2019-01-24T19:55:27.725Z,77.10
2019-01-24T19:57:56.914Z,67.10
2019-01-24T20:00:32.856Z,74.80
2019-01-24T20:03:01.662Z,65.83
2019-01-24T20:05:30.336Z,73.97
2019-01-24T20:07:59.034Z,78.07
2019-01-24T20:10:32.009Z,71.33
2019-01-24T20:13:01.050Z,68.57
2019-01-24T20:15:33.826Z,67.83
2019-01-24T20:18:02.638Z,73.33
2019-01-24T20:20:32.704Z,78.00
2019-01-24T20:23:01.351Z,74.33
2019-01-24T20:25:31.649Z,71.83
2019-01-24T20:28:01.753Z,74.33
2019-01-24T20:30:33.962Z,74.37
2019-01-24T20:33:03.358Z,78.93
2019-01-24T20:35:37.274Z,76.03
2019-01-24T20:38:07.049Z,74.03
2019-01-24T20:40:35.842Z,80.47
2019-01-24T20:43:07.864Z,75.07
2019-01-24T20:45:36.748Z,78.87
2019-01-24T20:48:05.910Z,79.57
2019-01-24T20:50:34.520Z,79.77
2019-01-24T20:53:03.157Z,78.80
2019-01-24T20:55:33.113Z,86.20
2019-01-24T20:58:01.968Z,82.07
2019-01-24T21:00:32.301Z,82.43
2019-01-24T21:03:04.261Z,77.10
2019-01-24T21:05:35.984Z,83.40
2019-01-24T21:08:04.591Z,75.00
2019-01-24T21:10:34.216Z,80.13
2019-01-24T21:13:03.451Z,90.10
2019-01-24T21:15:32.425Z,83.83
2019-01-24T21:18:00.865Z,83.83
2019-01-24T21:20:32.919Z,80.77
2019-01-24T21:23:01.381Z,84.50
2019-01-24T21:25:29.895Z,87.60
2019-01-24T21:27:58.397Z,89.10
2019-01-24T21:30:35.607Z,85.03
2019-01-24T21:33:05.120Z,82.70
2019-01-24T21:35:33.896Z,90.03
2019-01-24T21:38:02.886Z,81.83
2019-01-24T21:40:31.902Z,90.67
2019-01-24T21:43:00.502Z,82.47
2019-01-24T21:45:31.883Z,86.03
2019-01-24T21:48:00.732Z,89.47
2019-01-24T21:50:31.188Z,86.67
2019-01-24T21:52:59.961Z,83.40
2019-01-24T21:55:28.953Z,84.87
2019-01-24T21:57:57.926Z,86.37
2019-01-24T22:00:27.977Z,88.53
2019-01-24T22:02:56.588Z,90.23
2019-01-24T22:05:25.391Z,88.40
2019-01-24T22:07:53.867Z,88.13
2019-01-24T22:10:24.539Z,88.20
2019-01-24T22:12:54.388Z,91.53
2019-01-24T22:15:25.613Z,89.20
2019-01-24T22:17:54.751Z,88.10
2019-01-24T22:20:23.810Z,84.03
2019-01-24T22:22:52.647Z,85.57
2019-01-24T22:25:24.284Z,88.07
2019-01-24T22:27:52.998Z,90.53
2019-01-24T22:30:29.331Z,91.80
2019-01-24T22:32:58.254Z,92.10
2019-01-24T22:35:26.690Z,88.17
2019-01-24T22:37:55.594Z,94.10
2019-01-24T22:40:24.754Z,87.17
2019-01-24T22:42:53.696Z,90.53
2019-01-24T22:45:28.063Z,90.03
2019-01-24T22:47:58.006Z,92.10
2019-01-24T22:50:26.611Z,92.33
2019-01-24T22:52:55.275Z,91.90
2019-01-24T22:55:24.676Z,90.77
2019-01-24T22:57:53.365Z,93.37
2019-01-24T23:00:26.547Z,89.53
2019-01-24T23:02:55.308Z,84.40
2019-01-24T23:05:23.799Z,90.33
2019-01-24T23:07:52.713Z,95.27
2019-01-24T23:10:23.365Z,96.23
2019-01-24T23:12:55.868Z,90.10
2019-01-24T23:15:25.841Z,91.00
2019-01-24T23:17:54.539Z,91.57
2019-01-24T23:20:23.371Z,95.40
2019-01-24T23:22:54.508Z,94.23
2019-01-24T23:25:23.278Z,90.40
2019-01-24T23:27:51.664Z,96.13
2019-01-24T23:30:20.592Z,96.03
2019-01-24T23:32:50.942Z,95.07
2019-01-24T23:35:20.157Z,99.13
2019-01-24T23:37:52.484Z,91.70
2019-01-24T23:40:19.399Z,92.90
2019-01-24T23:42:48.166Z,92.73
2019-01-24T23:45:17.230Z,94.63
2019-01-24T23:47:47.373Z,92.23
2019-01-24T23:50:16.132Z,94.30
2019-01-24T23:52:44.848Z,91.23
2019-01-24T23:55:13.626Z,91.33
2019-01-24T23:57:42.168Z,95.43
